Time;durP1;ratioP1;P1;durP2;ratioP2;P2;SDS_P1;SDS_P2;PMS_P1;PMS_P2;Temp;Humidity;BMP_temperature;BMP_pressure;BME280_temperature;BME280_humidity;BME280_pressure;Samples;Min_cycle;Max_cycle;Signal;HPM_P1;HPM_P2
2023/09/30 00:02:05;;;;;;;16.27;7.03;;;;;;;10.84;100.00;102540.13;5250795;28;20013;-72
2023/09/30 00:04:35;;;;;;;10.38;5.60;;;;;;;10.82;100.00;102544.75;5248201;28;20032;-73
2023/09/30 00:07:06;;;;;;;13.40;6.75;;;;;;;10.85;100.00;102543.66;5244429;28;20472;-73
2023/09/30 00:09:37;;;;;;;19.20;7.35;;;;;;;10.85;100.00;102544.50;5252892;28;20028;-72
2023/09/30 00:12:07;;;;;;;20.05;5.65;;;;;;;10.84;100.00;102541.91;5253300;28;20032;-73
2023/09/30 00:14:38;;;;;;;15.35;6.30;;;;;;;10.81;100.00;102528.78;5252440;28;20491;-72
2023/09/30 00:17:08;;;;;;;11.30;6.13;;;;;;;10.81;100.00;102528.78;5252096;28;20028;-71
2023/09/30 00:19:39;;;;;;;14.80;6.13;;;;;;;10.78;100.00;102535.22;5251449;28;20715;-72
2023/09/30 00:22:09;;;;;;;19.85;6.45;;;;;;;10.77;100.00;102538.91;5250152;28;20016;-71
2023/09/30 00:24:40;;;;;;;31.77;5.45;;;;;;;10.74;100.00;102535.59;5256019;28;20473;-72
2023/09/30 00:27:10;;;;;;;15.90;5.00;;;;;;;10.69;100.00;102521.72;5243415;28;20032;-72
2023/09/30 00:29:41;;;;;;;12.65;5.43;;;;;;;10.72;100.00;102530.38;5250241;28;20073;-72
2023/09/30 00:32:12;;;;;;;15.45;6.15;;;;;;;10.75;100.00;102540.88;5241498;28;20028;-73
2023/09/30 00:34:42;;;;;;;19.13;8.00;;;;;;;10.75;100.00;102545.38;5249329;28;20024;-72
2023/09/30 00:37:13;;;;;;;15.52;7.35;;;;;;;10.73;100.00;102542.81;5247221;28;20028;-72
2023/09/30 00:39:44;;;;;;;20.25;7.88;;;;;;;10.73;100.00;102542.81;5251279;28;20146;-72
2023/09/30 00:42:15;;;;;;;14.90;6.90;;;;;;;10.67;100.00;102548.69;5251589;28;20032;-72
2023/09/30 00:44:45;;;;;;;16.20;6.85;;;;;;;10.61;100.00;102552.72;5254677;28;20036;-71
2023/09/30 00:47:16;;;;;;;15.60;7.90;;;;;;;10.56;100.00;102549.56;5251539;28;20049;-72
2023/09/30 00:49:47;;;;;;;18.70;7.80;;;;;;;10.53;100.00;102547.13;5251136;28;20050;-72
2023/09/30 00:52:18;;;;;;;15.52;6.78;;;;;;;10.61;100.00;102539.31;5243225;28;20021;-71
2023/09/30 00:54:50;;;;;;;16.08;7.43;;;;;;;10.58;100.00;102542.22;5251397;28;20055;-72
2023/09/30 00:57:21;;;;;;;12.13;6.38;;;;;;;10.60;100.00;102551.03;5250161;28;20024;-72
2023/09/30 00:59:52;;;;;;;11.43;5.50;;;;;;;10.63;100.00;102556.13;5254729;28;20024;-71
2023/09/30 01:02:23;;;;;;;10.13;4.97;;;;;;;10.62;100.00;102553.56;5254139;28;20484;-71
2023/09/30 01:04:55;;;;;;;11.93;6.20;;;;;;;10.65;100.00;102565.91;5261936;28;20032;-71
2023/09/30 01:07:25;;;;;;;12.73;5.47;;;;;;;10.68;100.00;102566.50;5251628;28;20485;-71
2023/09/30 01:10:10;;;;;;;15.25;7.03;;;;;;;10.69;100.00;102567.34;5251943;28;20025;-72
2023/09/30 01:12:59;;;;;;;14.20;6.80;;;;;;;10.65;100.00;102568.59;5249190;28;20077;-72
2023/09/30 01:15:30;;;;;;;15.95;7.53;;;;;;;10.60;100.00;102569.81;5250600;28;20490;-71
2023/09/30 01:18:01;;;;;;;17.55;7.43;;;;;;;10.54;100.00;102558.69;5260257;28;20028;-71
2023/09/30 01:20:32;;;;;;;20.85;7.65;;;;;;;10.50;100.00;102560.81;5253233;28;20478;-71
2023/09/30 01:23:03;;;;;;;14.70;7.53;;;;;;;10.46;100.00;102559.34;5258408;28;20114;-71
2023/09/30 01:25:34;;;;;;;25.13;9.20;;;;;;;10.42;100.00;102565.94;5253639;28;20088;-71
2023/09/30 01:28:08;;;;;;;24.48;8.55;;;;;;;10.45;100.00;102571.06;5255647;28;20028;-72
2023/09/30 01:30:38;;;;;;;22.15;8.13;;;;;;;10.47;100.00;102562.88;5257387;28;20024;-71
2023/09/30 01:33:09;;;;;;;21.13;7.68;;;;;;;10.46;100.00;102555.81;5255787;28;20088;-71
2023/09/30 01:35:40;;;;;;;15.93;7.35;;;;;;;10.45;100.00;102549.59;5259911;28;20036;-71
2023/09/30 01:38:10;;;;;;;25.65;8.57;;;;;;;10.46;100.00;102553.97;5256744;28;20386;-71
2023/09/30 01:40:42;;;;;;;19.02;6.93;;;;;;;10.44;100.00;102555.94;5255477;28;20031;-71
2023/09/30 01:43:14;;;;;;;18.25;6.82;;;;;;;10.44;100.00;102561.31;5252644;28;20016;-71
2023/09/30 01:45:44;;;;;;;14.10;7.85;;;;;;;10.47;100.00;102562.88;5261663;28;20439;-71
2023/09/30 01:48:15;;;;;;;23.00;7.63;;;;;;;10.46;100.00;102567.38;5245607;28;20024;-71
2023/09/30 01:50:47;;;;;;;20.67;7.78;;;;;;;10.42;100.00;102565.06;5253511;28;20409;-71
2023/09/30 01:53:18;;;;;;;14.20;6.90;;;;;;;10.36;100.00;102566.44;5253629;28;20392;-72
2023/09/30 01:55:48;;;;;;;17.13;7.57;;;;;;;10.33;100.00;102558.59;5248246;28;20025;-71
2023/09/30 01:58:19;;;;;;;17.92;7.35;;;;;;;10.36;100.00;102566.44;5253516;28;20028;-71
2023/09/30 02:00:50;;;;;;;21.73;7.75;;;;;;;10.36;100.00;102559.22;5247507;28;20017;-71
2023/09/30 02:03:21;;;;;;;18.50;8.25;;;;;;;10.34;100.00;102574.59;5251867;28;20097;-71
2023/09/30 02:05:52;;;;;;;20.05;8.60;;;;;;;10.30;100.00;102573.13;5252115;28;20028;-72
2023/09/30 02:08:22;;;;;;;18.05;8.43;;;;;;;10.29;100.00;102567.88;5255590;28;20024;-71
2023/09/30 02:10:53;;;;;;;17.25;7.20;;;;;;;10.24;100.00;102559.34;5253529;28;20036;-71
2023/09/30 02:13:24;;;;;;;22.80;5.35;;;;;;;10.16;100.00;102565.31;5254101;28;20063;-71
2023/09/30 02:15:57;;;;;;;31.33;6.10;;;;;;;10.08;100.00;102571.25;5251611;28;20115;-71
2023/09/30 02:18:28;;;;;;;13.70;6.85;;;;;;;10.03;100.00;102570.75;5247849;28;20106;-71
2023/09/30 02:21:04;;;;;;;9.25;5.18;;;;;;;9.99;100.00;102577.38;5252031;28;20557;-71
2023/09/30 02:23:35;;;;;;;13.10;6.90;;;;;;;9.98;100.00;102577.47;5253668;28;20032;-71
2023/09/30 02:26:27;;;;;;;20.00;7.30;;;;;;;9.95;100.00;102575.03;5250789;28;20029;-71
2023/09/30 02:29:07;;;;;;;13.85;6.43;;;;;;;9.96;100.00;102564.19;5255132;28;20413;-71
2023/09/30 02:31:38;;;;;;;15.35;6.40;;;;;;;9.93;100.00;102563.56;5252902;28;20034;-71
2023/09/30 02:34:08;;;;;;;16.25;6.40;;;;;;;9.94;100.00;102570.63;5256884;28;20417;-71
2023/09/30 02:36:39;;;;;;;15.98;5.78;;;;;;;9.90;100.00;102567.34;5253533;28;20028;-71
2023/09/30 02:39:09;;;;;;;74.57;7.35;;;;;;;9.88;100.00;102563.94;5253308;28;20085;-71
2023/09/30 02:41:40;;;;;;;41.67;6.07;;;;;;;9.87;100.00;102575.63;5252031;28;20020;-71
2023/09/30 02:44:10;;;;;;;21.70;5.63;;;;;;;9.86;100.00;102571.25;5250815;28;20028;-71
2023/09/30 02:46:41;;;;;;;11.98;5.20;;;;;;;9.88;100.00;102579.16;5256948;28;20043;-71
2023/09/30 02:49:11;;;;;;;13.15;6.05;;;;;;;9.98;100.00;102591.72;5254714;28;20104;-72
2023/09/30 02:51:42;;;;;;;14.18;7.07;;;;;;;10.09;100.00;102598.91;5252666;28;20443;-72
2023/09/30 02:54:15;;;;;;;13.98;6.97;;;;;;;10.13;100.00;102597.72;5249663;28;20031;-71
2023/09/30 02:56:46;;;;;;;15.27;6.72;;;;;;;10.14;100.00;102583.34;5244217;28;20031;-71
2023/09/30 02:59:18;;;;;;;18.48;7.60;;;;;;;10.13;100.00;102563.69;5257327;28;20043;-71
2023/09/30 03:01:49;;;;;;;20.45;6.00;;;;;;;10.11;100.00;102551.41;5251416;28;20139;-72
2023/09/30 03:04:19;;;;;;;19.20;5.32;;;;;;;10.02;100.00;102561.03;5252124;28;20091;-71
2023/09/30 03:06:50;;;;;;;13.50;5.15;;;;;;;9.96;100.00;102563.34;5250731;28;20032;-71
2023/09/30 03:09:21;;;;;;;153.88;14.25;;;;;;;9.93;100.00;102556.38;5254618;28;20024;-71
2023/09/30 03:11:52;;;;;;;13.52;5.43;;;;;;;9.93;100.00;102551.00;5256713;28;20078;-71
2023/09/30 03:14:23;;;;;;;18.27;7.38;;;;;;;9.99;100.00;102549.66;5251425;28;20024;-71
2023/09/30 03:16:53;;;;;;;17.52;7.88;;;;;;;10.00;100.00;102541.53;5251736;28;20111;-72
2023/09/30 03:19:24;;;;;;;14.85;7.10;;;;;;;10.03;100.00;102552.00;5254827;28;20017;-72
2023/09/30 03:21:54;;;;;;;17.75;8.30;;;;;;;10.08;100.00;102543.59;5259859;28;20046;-71
2023/09/30 03:24:24;;;;;;;14.45;7.18;;;;;;;10.11;100.00;102546.88;5252665;28;20446;-71
2023/09/30 03:26:55;;;;;;;18.55;6.28;;;;;;;10.16;100.00;102551.88;5252430;28;20032;-72
2023/09/30 03:29:26;;;;;;;25.63;7.40;;;;;;;10.14;100.00;102567.25;5255083;28;20028;-71
2023/09/30 03:31:56;;;;;;;15.95;7.22;;;;;;;10.11;100.00;102559.44;5254468;28;20032;-72
2023/09/30 03:34:28;;;;;;;15.50;7.30;;;;;;;10.16;100.00;102565.31;5257398;28;20016;-72
2023/09/30 03:36:59;;;;;;;27.48;7.03;;;;;;;10.18;100.00;102559.81;5252407;28;20434;-72
2023/09/30 03:39:29;;;;;;;17.27;7.55;;;;;;;10.17;100.00;102568.84;5254800;28;20039;-71
2023/09/30 03:42:00;;;;;;;25.25;8.35;;;;;;;10.16;100.00;102564.44;5255615;28;20034;-72
2023/09/30 03:44:31;;;;;;;87.18;9.02;;;;;;;10.18;100.00;102557.97;5251289;28;20036;-72
2023/09/30 03:47:01;;;;;;;11.65;5.28;;;;;;;10.15;100.00;102552.88;5255812;28;20492;-72
2023/09/30 03:49:32;;;;;;;20.23;5.35;;;;;;;10.17;100.00;102553.59;5244967;28;20028;-71
2023/09/30 03:52:03;;;;;;;22.15;6.80;;;;;;;10.16;100.00;102549.22;5252556;28;20040;-71
2023/09/30 03:54:34;;;;;;;33.97;9.95;;;;;;;10.26;100.00;102549.34;5255518;28;20031;-72
2023/09/30 03:57:05;;;;;;;17.23;8.23;;;;;;;10.24;100.00;102552.19;5252949;28;20031;-72
2023/09/30 03:59:35;;;;;;;16.50;7.45;;;;;;;10.19;100.00;102558.81;5258533;28;20409;-72
2023/09/30 04:02:06;;;;;;;18.95;7.60;;;;;;;10.12;100.00;102556.63;5254111;28;20027;-71
2023/09/30 04:04:37;;;;;;;15.25;6.72;;;;;;;10.07;100.00;102557.97;5258601;28;20481;-72
2023/09/30 04:07:09;;;;;;;27.17;6.07;;;;;;;10.07;100.00;102558.81;5250886;28;20036;-72
2023/09/30 04:09:40;;;;;;;10.23;5.38;;;;;;;10.04;100.00;102553.72;5257858;28;20016;-72
2023/09/30 04:12:11;;;;;;;14.30;5.80;;;;;;;10.03;100.00;102548.47;5241913;28;20047;-71
2023/09/30 04:14:41;;;;;;;14.65;6.57;;;;;;;10.00;100.00;102546.03;5254146;28;20030;-71
2023/09/30 04:17:12;;;;;;;13.07;6.60;;;;;;;9.97;100.00;102552.47;5254254;28;20042;-71
2023/09/30 04:19:42;;;;;;;36.50;8.73;;;;;;;9.97;100.00;102546.28;5252916;28;20028;-72
2023/09/30 04:22:13;;;;;;;18.25;7.68;;;;;;;9.97;100.00;102548.94;5254391;28;20424;-72
2023/09/30 04:24:43;;;;;;;32.67;8.85;;;;;;;9.94;100.00;102542.03;5256599;28;20051;-72
2023/09/30 04:27:14;;;;;;;34.45;8.00;;;;;;;9.91;100.00;102539.56;5249857;28;20489;-72
2023/09/30 04:29:44;;;;;;;22.00;7.82;;;;;;;9.88;100.00;102547.00;5256329;28;20535;-71
2023/09/30 04:32:15;;;;;;;19.05;5.88;;;;;;;9.83;100.00;102541.97;5252620;28;20037;-72
2023/09/30 04:34:46;;;;;;;15.00;6.50;;;;;;;9.81;100.00;102535.91;5255171;28;20059;-72
2023/09/30 04:37:17;;;;;;;19.13;6.55;;;;;;;9.77;100.00;102543.31;5250180;28;20477;-73
2023/09/30 04:39:48;;;;;;;26.45;6.32;;;;;;;9.73;100.00;102554.41;5255394;28;20031;-72
2023/09/30 04:42:19;;;;;;;12.93;7.05;;;;;;;9.71;100.00;102542.97;5253938;28;20094;-72
2023/09/30 04:44:49;;;;;;;41.38;8.35;;;;;;;9.68;100.00;102543.19;5254448;28;20102;-72
2023/09/30 04:47:20;;;;;;;14.65;7.13;;;;;;;9.64;100.00;102541.72;5252600;28;20493;-72
2023/09/30 04:49:51;;;;;;;14.93;7.28;;;;;;;9.60;100.00;102551.84;5254464;28;20043;-72
2023/09/30 04:52:24;;;;;;;18.70;7.65;;;;;;;9.60;100.00;102539.28;5251178;28;20028;-72
2023/09/30 04:54:54;;;;;;;18.33;8.30;;;;;;;9.54;100.00;102547.81;5250859;28;20013;-73
2023/09/30 04:57:25;;;;;;;27.60;11.50;;;;;;;9.66;100.00;102564.75;5248958;28;20397;-72
2023/09/30 04:59:56;;;;;;;28.67;10.73;;;;;;;9.80;100.00;102569.03;5251402;28;20405;-72
2023/09/30 05:02:27;;;;;;;23.83;10.43;;;;;;;9.87;100.00;102572.94;5251546;28;20020;-72
2023/09/30 05:04:58;;;;;;;21.50;8.60;;;;;;;9.85;100.00;102564.19;5243015;28;20029;-72
2023/09/30 05:07:28;;;;;;;19.50;8.50;;;;;;;9.78;100.00;102557.56;5242490;28;20040;-72
2023/09/30 05:09:59;;;;;;;28.92;10.40;;;;;;;9.74;100.00;102567.69;5241520;28;20024;-72
2023/09/30 05:12:30;;;;;;;21.17;8.75;;;;;;;9.73;100.00;102570.47;5231468;28;20028;-72
2023/09/30 05:15:01;;;;;;;29.40;10.93;;;;;;;9.70;100.00;102551.97;5237290;28;20492;-73
2023/09/30 05:17:32;;;;;;;25.95;10.48;;;;;;;9.72;100.00;102552.69;5223785;28;20371;-72
2023/09/30 05:20:06;;;;;;;24.85;9.77;;;;;;;9.73;100.00;102555.25;5239279;28;20027;-73
2023/09/30 05:22:38;;;;;;;22.92;9.85;;;;;;;9.75;100.00;102568.56;5243342;28;20032;-72
2023/09/30 05:25:09;;;;;;;30.33;10.15;;;;;;;9.73;100.00;102575.84;5240912;28;20175;-72
2023/09/30 05:27:40;;;;;;;24.23;9.02;;;;;;;9.73;100.00;102578.53;5239283;28;20024;-72
2023/09/30 05:30:11;;;;;;;41.03;10.18;;;;;;;9.74;100.00;102574.88;5241953;28;20036;-73
2023/09/30 05:32:42;;;;;;;54.83;7.78;;;;;;;9.72;100.00;102574.13;5245807;28;20051;-73
2023/09/30 05:35:12;;;;;;;17.85;6.50;;;;;;;9.62;100.00;102571.31;5248548;28;20541;-73
2023/09/30 05:37:44;;;;;;;29.50;8.80;;;;;;;9.62;100.00;102567.78;5252941;28;20034;-71
2023/09/30 05:40:21;;;;;;;22.67;8.13;;;;;;;9.59;100.00;102575.09;5245945;28;20069;-72
2023/09/30 05:42:53;;;;;;;19.23;8.50;;;;;;;9.63;100.00;102586.41;5251465;28;20024;-71
2023/09/30 05:45:26;;;;;;;22.08;9.13;;;;;;;9.72;100.00;102580.34;5250439;28;20032;-71
2023/09/30 05:47:58;;;;;;;27.85;9.20;;;;;;;9.71;100.00;102573.28;5246315;28;20074;-72
2023/09/30 05:50:29;;;;;;;18.45;7.35;;;;;;;9.73;100.00;102597.28;5253825;28;20063;-72
2023/09/30 05:53:00;;;;;;;18.92;6.72;;;;;;;9.71;100.00;102596.56;5248804;28;20024;-71
2023/09/30 05:55:30;;;;;;;21.58;8.25;;;;;;;9.73;100.00;102598.13;5255824;28;20036;-72
2023/09/30 05:58:01;;;;;;;22.90;8.75;;;;;;;9.75;100.00;102601.56;5253569;28;20039;-73
2023/09/30 06:00:35;;;;;;;25.13;8.35;;;;;;;9.77;100.00;102610.34;5249200;28;20035;-72
2023/09/30 06:03:06;;;;;;;18.80;9.25;;;;;;;9.82;100.00;102609.97;5252190;28;20020;-72
2023/09/30 06:05:42;;;;;;;27.48;8.70;;;;;;;9.86;100.00;102603.41;5243155;28;20032;-71
2023/09/30 06:08:14;;;;;;;133.65;9.95;;;;;;;9.90;100.00;102598.69;5250678;28;20260;-72
2023/09/30 06:10:44;;;;;;;74.50;9.15;;;;;;;9.89;100.00;102580.84;5252177;28;20116;-72
2023/09/30 06:13:15;;;;;;;83.53;9.70;;;;;;;9.86;100.00;102568.56;5249797;28;20429;-73
2023/09/30 06:15:46;;;;;;;41.63;7.00;;;;;;;9.90;100.00;102572.72;5252494;28;20032;-71
2023/09/30 06:18:17;;;;;;;15.50;6.15;;;;;;;9.98;100.00;102577.47;5250055;28;20532;-72
2023/09/30 06:20:49;;;;;;;15.27;6.82;;;;;;;10.08;100.00;102592.69;5252133;28;20024;-72
2023/09/30 06:23:19;;;;;;;21.15;8.75;;;;;;;10.21;100.00;102591.75;5247016;28;20028;-72
2023/09/30 06:25:51;;;;;;;16.33;7.55;;;;;;;10.35;100.00;102589.72;5250732;28;20038;-70
2023/09/30 06:28:25;;;;;;;20.92;8.77;;;;;;;10.45;100.00;102600.56;5248205;28;20048;-72
2023/09/30 06:30:56;;;;;;;16.40;7.43;;;;;;;10.65;100.00;102604.34;5249484;28;20385;-72
2023/09/30 06:33:29;;;;;;;16.75;7.43;;;;;;;10.82;100.00;102605.63;5251232;28;20286;-72
2023/09/30 06:36:02;;;;;;;20.52;8.40;;;;;;;11.00;100.00;102611.34;5248404;28;20088;-73
2023/09/30 06:38:32;;;;;;;25.70;9.38;;;;;;;11.19;100.00;102610.66;5251255;28;20032;-71
2023/09/30 06:41:03;;;;;;;46.38;15.55;;;;;;;11.47;100.00;102615.44;5254159;28;20393;-70
2023/09/30 06:43:35;;;;;;;39.83;15.00;;;;;;;11.77;100.00;102613.81;5252335;28;20032;-71
2023/09/30 06:46:13;;;;;;;46.90;14.23;;;;;;;12.03;100.00;102628.59;5255828;28;20028;-71
2023/09/30 06:48:43;;;;;;;34.45;12.45;;;;;;;12.17;100.00;102622.88;5249926;28;20478;-71
2023/09/30 06:51:17;;;;;;;40.85;15.38;;;;;;;12.24;100.00;102631.25;5251841;28;20043;-71
2023/09/30 06:53:47;;;;;;;45.30;16.58;;;;;;;12.31;100.00;102639.69;5247475;28;20405;-70
2023/09/30 06:56:18;;;;;;;48.60;14.20;;;;;;;12.39;100.00;102651.44;5251924;28;20040;-72
2023/09/30 06:58:48;;;;;;;33.72;14.45;;;;;;;12.49;100.00;102656.88;5259436;28;20024;-71
2023/09/30 07:01:19;;;;;;;39.42;14.38;;;;;;;12.62;100.00;102665.59;5252113;28;20033;-71
2023/09/30 07:03:49;;;;;;;45.38;15.65;;;;;;;12.77;100.00;102674.16;5257466;28;20101;-70
2023/09/30 07:06:26;;;;;;;46.28;15.43;;;;;;;12.93;100.00;102682.56;5251443;28;20028;-71
2023/09/30 07:08:57;;;;;;;34.58;13.85;;;;;;;13.13;100.00;102677.22;5256473;28;20031;-71
2023/09/30 07:11:30;;;;;;;40.38;14.55;;;;;;;13.27;100.00;102676.88;5250318;28;20385;-71
2023/09/30 07:14:01;;;;;;;43.22;15.55;;;;;;;13.40;100.00;102695.47;5252456;28;20025;-71
2023/09/30 07:16:32;;;;;;;32.67;13.50;;;;;;;13.70;100.00;102699.88;5249230;28;20370;-71
2023/09/30 07:19:02;;;;;;;30.50;14.43;;;;;;;13.86;100.00;102689.41;5250324;28;20085;-71
2023/09/30 07:21:33;;;;;;;27.70;13.80;;;;;;;14.03;100.00;102676.16;5258488;28;20020;-71
2023/09/30 07:24:04;;;;;;;35.38;13.95;;;;;;;14.20;100.00;102684.34;5254191;28;20028;-71
2023/09/30 07:26:35;;;;;;;35.70;14.85;;;;;;;14.45;100.00;102690.97;5254207;28;20036;-72
2023/09/30 07:29:06;;;;;;;39.10;14.45;;;;;;;14.67;100.00;102681.69;5253829;28;20028;-72
2023/09/30 07:31:36;;;;;;;34.42;13.23;;;;;;;14.96;100.00;102678.88;5253452;28;20039;-72
2023/09/30 07:34:07;;;;;;;33.65;12.45;;;;;;;15.17;100.00;102686.69;5254150;28;20031;-72
2023/09/30 07:36:37;;;;;;;34.45;12.48;;;;;;;15.40;100.00;102675.44;5252750;28;20028;-73
2023/09/30 07:39:08;;;;;;;29.85;11.75;;;;;;;15.45;100.00;102683.94;5255093;28;20344;-73
2023/09/30 07:41:39;;;;;;;28.08;11.25;;;;;;;15.57;100.00;102693.53;5254060;28;20020;-73
2023/09/30 07:44:09;;;;;;;29.13;11.73;;;;;;;15.61;100.00;102697.63;5253376;28;20028;-73
2023/09/30 07:46:40;;;;;;;29.77;11.95;;;;;;;15.78;100.00;102696.81;5255565;28;20032;-73
2023/09/30 07:49:10;;;;;;;38.88;12.05;;;;;;;15.82;100.00;102689.25;5250029;28;20032;-72
2023/09/30 07:51:41;;;;;;;30.60;12.05;;;;;;;16.09;100.00;102693.66;5256483;28;20158;-73
2023/09/30 07:54:12;;;;;;;26.88;11.00;;;;;;;16.38;100.00;102687.09;5249501;28;20029;-73
2023/09/30 07:56:42;;;;;;;37.25;11.73;;;;;;;16.63;100.00;102675.41;5255370;28;20039;-73
2023/09/30 07:59:14;;;;;;;30.92;11.35;;;;;;;16.82;100.00;102682.47;5253077;28;20481;-74
2023/09/30 08:01:44;;;;;;;33.13;10.50;;;;;;;16.83;100.00;102679.59;5244950;28;20054;-73
2023/09/30 08:04:15;;;;;;;32.67;10.40;;;;;;;16.77;100.00;102674.81;5252166;28;20059;-73
2023/09/30 08:06:46;;;;;;;27.73;10.15;;;;;;;17.12;100.00;102675.63;5248695;28;20027;-72
2023/09/30 08:09:18;;;;;;;31.77;10.20;;;;;;;17.34;100.00;102674.13;5250396;28;20032;-73
2023/09/30 08:11:48;;;;;;;27.55;9.27;;;;;;;17.41;100.00;102677.88;5256814;28;20039;-73
2023/09/30 08:14:20;;;;;;;25.27;9.70;;;;;;;17.36;100.00;102682.94;5250298;28;20401;-73
2023/09/30 08:16:50;;;;;;;26.52;9.90;;;;;;;17.65;100.00;102679.78;5254760;28;20028;-72
2023/09/30 08:19:21;;;;;;;27.13;10.10;;;;;;;17.62;100.00;102680.13;5253922;28;20489;-72
2023/09/30 08:21:52;;;;;;;36.83;9.90;;;;;;;17.66;100.00;102676.03;5254884;28;20116;-72
2023/09/30 08:24:22;;;;;;;31.75;9.90;;;;;;;17.73;100.00;102674.41;5252942;28;20089;-72
2023/09/30 08:26:53;;;;;;;25.35;10.18;;;;;;;17.81;100.00;102684.38;5252162;28;20032;-73
2023/09/30 08:29:23;;;;;;;32.30;9.75;;;;;;;18.11;100.00;102670.09;5253033;28;20036;-73
2023/09/30 08:31:54;;;;;;;30.83;9.27;;;;;;;18.45;100.00;102671.75;5250011;28;20070;-73
2023/09/30 08:34:25;;;;;;;27.73;9.95;;;;;;;18.72;100.00;102670.50;5253540;28;20485;-72
2023/09/30 08:36:55;;;;;;;21.00;9.00;;;;;;;18.86;100.00;102669.75;5253285;28;20085;-73
2023/09/30 08:39:28;;;;;;;33.10;10.18;;;;;;;19.08;100.00;102670.00;5252334;28;20040;-72
2023/09/30 08:42:02;;;;;;;25.83;8.98;;;;;;;19.41;100.00;102674.22;5252647;28;20020;-74
2023/09/30 08:44:33;;;;;;;21.55;9.45;;;;;;;19.31;100.00;102665.44;5249944;28;20048;-73
2023/09/30 08:47:05;;;;;;;25.90;8.73;;;;;;;19.47;100.00;102669.91;5252872;28;20059;-73
2023/09/30 08:49:44;;;;;;;23.05;8.90;;;;;;;19.29;100.00;102669.38;5250764;28;20337;-73
2023/09/30 08:52:14;;;;;;;29.30;9.00;;;;;;;19.32;100.00;102671.72;5248660;28;20059;-74
2023/09/30 08:54:45;;;;;;;32.97;9.80;;;;;;;19.65;100.00;102678.66;5253071;28;20027;-73
2023/09/30 08:57:19;;;;;;;20.60;9.63;;;;;;;19.84;100.00;102669.16;5250271;28;20027;-73
2023/09/30 08:59:50;;;;;;;34.95;9.18;;;;;;;19.90;100.00;102657.53;5255693;28;20089;-73
2023/09/30 09:02:21;;;;;;;25.92;7.65;;;;;;;20.17;100.00;102653.31;5249955;28;20021;-73
2023/09/30 09:04:52;;;;;;;21.27;8.02;;;;;;;20.27;100.00;102658.50;5255278;28;20016;-73
2023/09/30 09:07:23;;;;;;;17.80;8.07;;;;;;;20.52;100.00;102669.19;5248717;28;20022;-73
2023/09/30 09:10:10;;;;;;;19.48;8.60;;;;;;;20.31;100.00;102673.47;5254800;28;20016;-73
2023/09/30 09:12:41;;;;;;;23.38;7.43;;;;;;;20.69;100.00;102681.59;5254984;28;20032;-71
2023/09/30 09:15:24;;;;;;;23.45;7.97;;;;;;;20.93;100.00;102677.69;5249677;28;20394;-73
2023/09/30 09:17:55;;;;;;;20.02;7.22;;;;;;;21.13;100.00;102680.66;5247420;28;20032;-71
2023/09/30 09:20:25;;;;;;;25.35;8.38;;;;;;;21.16;100.00;102686.59;5248031;28;20027;-72
2023/09/30 09:22:58;;;;;;;25.83;7.20;;;;;;;21.24;100.00;102693.00;5252192;28;20330;-71
2023/09/30 09:25:38;;;;;;;23.13;7.60;;;;;;;21.44;100.00;102705.84;5252796;28;20016;-71
2023/09/30 09:28:09;;;;;;;28.15;8.40;;;;;;;21.71;100.00;102706.97;5244652;28;20577;-71
2023/09/30 09:30:41;;;;;;;20.17;7.15;;;;;;;21.79;100.00;102722.38;5252486;28;20031;-71
2023/09/30 09:33:11;;;;;;;30.58;7.68;;;;;;;21.44;100.00;102700.41;5250374;28;20048;-71
2023/09/30 09:35:48;;;;;;;22.10;6.97;;;;;;;21.55;100.00;102699.03;5251257;28;20043;-72
2023/09/30 09:38:18;;;;;;;24.52;6.80;;;;;;;21.81;100.00;102698.44;5249955;28;20039;-70
2023/09/30 09:40:49;;;;;;;23.55;6.47;;;;;;;21.56;100.00;102705.34;5250566;28;20021;-71
2023/09/30 09:43:19;;;;;;;17.45;5.85;;;;;;;21.56;100.00;102703.44;5246525;28;20028;-70
2023/09/30 09:45:51;;;;;;;25.13;6.05;;;;;;;21.77;100.00;102705.31;5254323;28;20036;-71
2023/09/30 09:48:22;;;;;;;24.35;6.07;;;;;;;21.30;100.00;102703.13;5246942;28;20025;-71
2023/09/30 09:50:53;;;;;;;24.90;5.35;;;;;;;21.17;100.00;102707.38;5244882;28;20405;-70
2023/09/30 09:53:24;;;;;;;25.35;5.43;;;;;;;21.54;100.00;102702.81;5241240;28;20032;-71
2023/09/30 09:55:56;;;;;;;19.98;4.88;;;;;;;21.41;100.00;102698.03;5248036;28;20040;-70
2023/09/30 09:58:29;;;;;;;18.23;5.47;;;;;;;21.58;100.00;102704.09;5241127;28;20028;-71
2023/09/30 10:01:01;;;;;;;23.27;5.30;;;;;;;21.55;100.00;102714.56;5246060;28;20028;-71
2023/09/30 10:03:32;;;;;;;15.70;4.30;;;;;;;21.86;100.00;102708.78;5241403;28;20035;-70
2023/09/30 10:06:03;;;;;;;12.18;4.18;;;;;;;21.70;100.00;102718.09;5235639;28;20025;-70
2023/09/30 10:08:44;;;;;;;12.98;4.43;;;;;;;21.23;100.00;102713.94;5245648;28;20640;-70
2023/09/30 10:11:22;;;;;;;14.82;4.07;;;;;;;20.84;100.00;102723.34;5240753;28;20012;-70
2023/09/30 10:14:04;;;;;;;14.55;4.43;;;;;;;20.47;100.00;102726.13;5239397;28;20381;-70
2023/09/30 10:16:35;;;;;;;17.30;4.63;;;;;;;20.44;100.00;102722.72;5248315;28;20036;-71
2023/09/30 10:19:08;;;;;;;16.55;4.78;;;;;;;20.65;100.00;102716.56;5245343;28;20067;-71
2023/09/30 10:21:39;;;;;;;21.38;3.50;;;;;;;20.82;100.00;102710.91;5250475;28;20381;-71
2023/09/30 10:24:23;;;;;;;17.30;3.88;;;;;;;20.87;100.00;102709.31;5246472;28;20025;-71
2023/09/30 10:27:21;;;;;;;14.60;3.88;;;;;;;20.87;100.00;102698.41;5244615;28;20384;-71
2023/09/30 10:29:59;;;;;;;19.13;4.60;;;;;;;20.97;100.00;102703.56;5244887;28;20028;-73
2023/09/30 10:32:52;;;;;;;23.02;4.78;;;;;;;21.14;100.00;102701.47;5250421;28;20056;-71
2023/09/30 10:35:30;;;;;;;14.80;3.45;;;;;;;21.29;100.00;102696.00;5244338;28;20077;-71
2023/09/30 10:38:27;;;;;;;12.15;3.20;;;;;;;21.46;100.00;102698.31;5245716;28;20034;-71
2023/09/30 10:40:57;;;;;;;11.63;3.35;;;;;;;21.66;100.00;102693.03;5245620;28;20035;-72
2023/09/30 10:43:31;;;;;;;13.73;4.03;;;;;;;21.74;100.00;102686.63;5249895;28;20029;-72
2023/09/30 10:46:07;;;;;;;13.85;3.92;;;;;;;21.90;100.00;102689.06;5249119;28;20505;-72
2023/09/30 10:48:38;;;;;;;14.45;3.78;;;;;;;21.94;100.00;102681.31;5236919;28;20033;-72
2023/09/30 10:51:12;;;;;;;12.35;4.65;;;;;;;21.92;100.00;102680.66;5246964;28;20363;-71
2023/09/30 10:53:47;;;;;;;12.23;4.00;;;;;;;21.82;100.00;102677.41;5244939;28;20082;-71
2023/09/30 10:56:18;;;;;;;;;;;;;;;22.06;100.00;102665.22;5245930;28;20050;-71
2023/09/30 10:58:51;;;;;;;14.32;3.75;;;;;;;21.89;100.00;102668.25;5240558;28;19912;-70
2023/09/30 11:01:23;;;;;;;11.90;4.03;;;;;;;21.89;100.00;102671.00;5246413;28;20048;-71
2023/09/30 11:04:03;;;;;;;14.63;4.22;;;;;;;21.73;100.00;102660.31;5250016;28;20363;-71
2023/09/30 11:06:34;;;;;;;15.48;3.55;;;;;;;21.58;100.00;102662.28;5245736;28;20020;-72
2023/09/30 11:09:08;;;;;;;16.15;4.18;;;;;;;21.15;100.00;102673.16;5253927;28;20024;-71
2023/09/30 11:11:42;;;;;;;11.80;2.95;;;;;;;20.94;100.00;102660.31;5250138;28;20043;-71
2023/09/30 11:14:27;;;;;;;12.18;3.75;;;;;;;20.87;100.00;102657.47;5249587;28;20036;-72
2023/09/30 11:17:00;;;;;;;15.95;3.50;;;;;;;20.65;100.00;102645.66;5241402;28;20024;-71
2023/09/30 11:19:47;;;;;;;9.30;2.97;;;;;;;20.39;100.00;102645.28;5243421;28;20143;-71
2023/09/30 11:22:18;;;;;;;10.95;3.58;;;;;;;20.35;100.00;102644.81;5244776;28;20040;-71
2023/09/30 11:24:48;;;;;;;14.07;4.32;;;;;;;20.30;100.00;102652.69;5242133;28;20052;-72
2023/09/30 11:27:24;;;;;;;13.15;3.08;;;;;;;20.43;100.00;102641.13;5247777;28;20024;-72
2023/09/30 11:29:55;;;;;;;9.50;2.63;;;;;;;20.57;100.00;102639.47;5243105;28;20107;-71
2023/09/30 11:32:26;;;;;;;11.40;2.97;;;;;;;20.58;100.00;102652.94;5247973;28;20103;-71